sensor_id;sensor_type;location;lat;lon;timestamp;P1;durP1;ratioP1;P2;durP2;ratioP2
80195;SDS011;69516;42.050;21.516;2023-05-10T00:00:47;7.53;;;3.60;;
80195;SDS011;69516;42.050;21.516;2023-05-10T00:03:13;5.95;;;2.95;;
80195;SDS011;69516;42.050;21.516;2023-05-10T00:05:39;4.85;;;2.63;;
80195;SDS011;69516;42.050;21.516;2023-05-10T00:08:06;5.47;;;3.17;;
80195;SDS011;69516;42.050;21.516;2023-05-10T00:10:32;6.50;;;3.10;;
80195;SDS011;69516;42.050;21.516;2023-05-10T00:12:58;5.35;;;2.90;;
80195;SDS011;69516;42.050;21.516;2023-05-10T00:15:25;5.50;;;3.22;;
80195;SDS011;69516;42.050;21.516;2023-05-10T00:17:51;6.57;;;2.72;;
80195;SDS011;69516;42.050;21.516;2023-05-10T00:20:17;6.88;;;3.22;;
80195;SDS011;69516;42.050;21.516;2023-05-10T00:22:43;5.72;;;3.55;;
80195;SDS011;69516;42.050;21.516;2023-05-10T00:25:09;5.40;;;3.33;;
80195;SDS011;69516;42.050;21.516;2023-05-10T00:27:36;6.40;;;3.28;;
80195;SDS011;69516;42.050;21.516;2023-05-10T00:30:02;7.28;;;3.50;;
80195;SDS011;69516;42.050;21.516;2023-05-10T00:32:28;8.35;;;3.47;;
80195;SDS011;69516;42.050;21.516;2023-05-10T00:34:54;5.78;;;3.47;;
80195;SDS011;69516;42.050;21.516;2023-05-10T00:37:21;6.95;;;3.90;;
80195;SDS011;69516;42.050;21.516;2023-05-10T00:39:47;7.70;;;3.70;;
80195;SDS011;69516;42.050;21.516;2023-05-10T00:42:13;6.30;;;3.78;;
80195;SDS011;69516;42.050;21.516;2023-05-10T00:44:39;6.68;;;4.00;;
80195;SDS011;69516;42.050;21.516;2023-05-10T00:47:05;5.95;;;3.75;;
80195;SDS011;69516;42.050;21.516;2023-05-10T00:49:32;6.22;;;3.47;;
80195;SDS011;69516;42.050;21.516;2023-05-10T00:51:58;5.75;;;3.35;;
80195;SDS011;69516;42.050;21.516;2023-05-10T00:54:24;6.40;;;3.78;;
80195;SDS011;69516;42.050;21.516;2023-05-10T00:56:51;6.25;;;3.42;;
80195;SDS011;69516;42.050;21.516;2023-05-10T00:59:17;6.60;;;3.60;;
80195;SDS011;69516;42.050;21.516;2023-05-10T01:01:44;7.22;;;4.20;;
80195;SDS011;69516;42.050;21.516;2023-05-10T01:04:11;7.65;;;4.15;;
80195;SDS011;69516;42.050;21.516;2023-05-10T01:06:38;7.75;;;4.00;;
80195;SDS011;69516;42.050;21.516;2023-05-10T01:09:04;7.03;;;4.00;;
80195;SDS011;69516;42.050;21.516;2023-05-10T01:11:32;6.88;;;4.07;;
80195;SDS011;69516;42.050;21.516;2023-05-10T01:13:58;7.18;;;4.40;;
80195;SDS011;69516;42.050;21.516;2023-05-10T01:16:24;6.97;;;4.72;;
80195;SDS011;69516;42.050;21.516;2023-05-10T01:18:52;6.85;;;4.30;;
80195;SDS011;69516;42.050;21.516;2023-05-10T01:21:22;7.90;;;4.35;;
80195;SDS011;69516;42.050;21.516;2023-05-10T01:29:11;6.65;;;4.28;;
80195;SDS011;69516;42.050;21.516;2023-05-10T01:31:51;6.82;;;4.03;;
80195;SDS011;69516;42.050;21.516;2023-05-10T01:34:23;7.57;;;4.63;;
80195;SDS011;69516;42.050;21.516;2023-05-10T01:36:58;7.25;;;4.50;;
80195;SDS011;69516;42.050;21.516;2023-05-10T01:39:49;6.35;;;3.90;;
80195;SDS011;69516;42.050;21.516;2023-05-10T01:42:21;8.77;;;4.50;;
80195;SDS011;69516;42.050;21.516;2023-05-10T01:44:51;7.68;;;4.45;;
80195;SDS011;69516;42.050;21.516;2023-05-10T01:50:04;6.30;;;4.47;;
80195;SDS011;69516;42.050;21.516;2023-05-10T01:52:40;8.35;;;4.43;;
80195;SDS011;69516;42.050;21.516;2023-05-10T01:55:11;6.60;;;4.05;;
80195;SDS011;69516;42.050;21.516;2023-05-10T01:57:39;8.38;;;4.28;;
80195;SDS011;69516;42.050;21.516;2023-05-10T02:00:06;7.75;;;4.70;;
80195;SDS011;69516;42.050;21.516;2023-05-10T02:02:35;6.97;;;4.47;;
80195;SDS011;69516;42.050;21.516;2023-05-10T02:05:03;7.95;;;5.32;;
80195;SDS011;69516;42.050;21.516;2023-05-10T02:07:30;7.22;;;4.95;;
80195;SDS011;69516;42.050;21.516;2023-05-10T02:09:56;6.65;;;4.18;;
80195;SDS011;69516;42.050;21.516;2023-05-10T02:12:23;6.97;;;4.43;;
80195;SDS011;69516;42.050;21.516;2023-05-10T02:14:50;8.18;;;5.10;;
80195;SDS011;69516;42.050;21.516;2023-05-10T02:17:17;7.43;;;4.97;;
80195;SDS011;69516;42.050;21.516;2023-05-10T02:19:43;7.90;;;5.10;;
80195;SDS011;69516;42.050;21.516;2023-05-10T02:22:10;7.45;;;4.90;;
80195;SDS011;69516;42.050;21.516;2023-05-10T02:24:37;7.88;;;4.93;;
80195;SDS011;69516;42.050;21.516;2023-05-10T02:27:04;8.85;;;4.57;;
80195;SDS011;69516;42.050;21.516;2023-05-10T02:29:32;6.82;;;4.60;;
80195;SDS011;69516;42.050;21.516;2023-05-10T02:31:59;7.93;;;5.40;;
80195;SDS011;69516;42.050;21.516;2023-05-10T02:34:25;8.82;;;5.15;;
80195;SDS011;69516;42.050;21.516;2023-05-10T02:36:53;7.32;;;4.65;;
80195;SDS011;69516;42.050;21.516;2023-05-10T02:39:19;8.95;;;5.30;;
80195;SDS011;69516;42.050;21.516;2023-05-10T02:41:46;8.02;;;4.85;;
80195;SDS011;69516;42.050;21.516;2023-05-10T02:44:14;7.13;;;4.45;;
80195;SDS011;69516;42.050;21.516;2023-05-10T02:46:41;8.35;;;5.18;;
80195;SDS011;69516;42.050;21.516;2023-05-10T02:49:07;8.07;;;5.18;;
80195;SDS011;69516;42.050;21.516;2023-05-10T02:51:34;7.57;;;5.25;;
80195;SDS011;69516;42.050;21.516;2023-05-10T02:56:31;8.27;;;5.05;;
80195;SDS011;69516;42.050;21.516;2023-05-10T02:58:59;9.02;;;4.95;;
80195;SDS011;69516;42.050;21.516;2023-05-10T03:01:25;9.13;;;5.45;;
80195;SDS011;69516;42.050;21.516;2023-05-10T03:03:51;9.10;;;5.00;;
80195;SDS011;69516;42.050;21.516;2023-05-10T03:06:17;7.88;;;4.82;;
80195;SDS011;69516;42.050;21.516;2023-05-10T03:08:44;8.27;;;5.35;;
80195;SDS011;69516;42.050;21.516;2023-05-10T03:13:43;8.27;;;4.47;;
80195;SDS011;69516;42.050;21.516;2023-05-10T03:16:12;7.65;;;4.82;;
80195;SDS011;69516;42.050;21.516;2023-05-10T03:18:44;8.35;;;5.10;;
80195;SDS011;69516;42.050;21.516;2023-05-10T03:21:13;7.63;;;5.13;;
80195;SDS011;69516;42.050;21.516;2023-05-10T03:26:08;8.30;;;5.22;;
80195;SDS011;69516;42.050;21.516;2023-05-10T03:28:34;8.43;;;5.03;;
80195;SDS011;69516;42.050;21.516;2023-05-10T03:31:01;9.25;;;5.05;;
80195;SDS011;69516;42.050;21.516;2023-05-10T03:33:28;8.43;;;5.22;;
80195;SDS011;69516;42.050;21.516;2023-05-10T03:35:54;8.23;;;5.22;;
80195;SDS011;69516;42.050;21.516;2023-05-10T03:38:21;8.30;;;4.93;;
80195;SDS011;69516;42.050;21.516;2023-05-10T03:40:47;9.05;;;5.93;;
80195;SDS011;69516;42.050;21.516;2023-05-10T03:43:13;8.00;;;5.80;;
80195;SDS011;69516;42.050;21.516;2023-05-10T03:45:39;8.18;;;4.72;;
80195;SDS011;69516;42.050;21.516;2023-05-10T03:48:05;7.80;;;5.45;;
80195;SDS011;69516;42.050;21.516;2023-05-10T03:50:31;8.27;;;5.35;;
80195;SDS011;69516;42.050;21.516;2023-05-10T03:52:58;8.68;;;5.05;;
80195;SDS011;69516;42.050;21.516;2023-05-10T03:55:24;7.93;;;5.25;;
80195;SDS011;69516;42.050;21.516;2023-05-10T03:57:50;7.90;;;4.65;;
80195;SDS011;69516;42.050;21.516;2023-05-10T04:00:18;7.63;;;4.97;;
80195;SDS011;69516;42.050;21.516;2023-05-10T04:02:45;7.43;;;5.22;;
80195;SDS011;69516;42.050;21.516;2023-05-10T04:05:11;8.00;;;5.43;;
80195;SDS011;69516;42.050;21.516;2023-05-10T04:07:37;7.45;;;5.35;;
80195;SDS011;69516;42.050;21.516;2023-05-10T04:10:03;8.88;;;6.00;;
80195;SDS011;69516;42.050;21.516;2023-05-10T04:12:30;8.75;;;5.03;;
80195;SDS011;69516;42.050;21.516;2023-05-10T04:14:56;7.45;;;4.90;;
80195;SDS011;69516;42.050;21.516;2023-05-10T04:17:22;8.65;;;5.10;;
80195;SDS011;69516;42.050;21.516;2023-05-10T04:19:48;10.70;;;5.90;;
80195;SDS011;69516;42.050;21.516;2023-05-10T04:22:18;9.75;;;5.88;;
80195;SDS011;69516;42.050;21.516;2023-05-10T04:24:44;8.77;;;5.60;;
80195;SDS011;69516;42.050;21.516;2023-05-10T04:27:10;10.27;;;6.03;;
80195;SDS011;69516;42.050;21.516;2023-05-10T04:29:36;8.90;;;5.82;;
80195;SDS011;69516;42.050;21.516;2023-05-10T04:32:03;9.75;;;6.55;;
80195;SDS011;69516;42.050;21.516;2023-05-10T04:34:29;11.95;;;6.28;;
80195;SDS011;69516;42.050;21.516;2023-05-10T04:36:55;9.45;;;6.57;;
80195;SDS011;69516;42.050;21.516;2023-05-10T04:39:22;9.43;;;6.57;;
80195;SDS011;69516;42.050;21.516;2023-05-10T04:41:48;10.07;;;6.50;;
80195;SDS011;69516;42.050;21.516;2023-05-10T04:44:14;10.82;;;6.93;;
80195;SDS011;69516;42.050;21.516;2023-05-10T04:46:40;10.07;;;7.15;;
80195;SDS011;69516;42.050;21.516;2023-05-10T04:49:06;10.05;;;6.93;;
80195;SDS011;69516;42.050;21.516;2023-05-10T04:51:32;11.65;;;7.50;;
80195;SDS011;69516;42.050;21.516;2023-05-10T04:53:59;12.30;;;7.50;;
80195;SDS011;69516;42.050;21.516;2023-05-10T04:56:25;11.38;;;6.90;;
80195;SDS011;69516;42.050;21.516;2023-05-10T04:58:51;8.88;;;6.22;;
80195;SDS011;69516;42.050;21.516;2023-05-10T05:01:17;11.50;;;6.78;;
80195;SDS011;69516;42.050;21.516;2023-05-10T05:03:44;10.30;;;6.93;;
80195;SDS011;69516;42.050;21.516;2023-05-10T05:06:10;10.80;;;6.50;;
80195;SDS011;69516;42.050;21.516;2023-05-10T05:08:36;10.20;;;6.00;;
80195;SDS011;69516;42.050;21.516;2023-05-10T05:11:02;11.73;;;6.43;;
80195;SDS011;69516;42.050;21.516;2023-05-10T05:13:29;10.30;;;6.00;;
80195;SDS011;69516;42.050;21.516;2023-05-10T05:15:55;8.57;;;5.60;;
80195;SDS011;69516;42.050;21.516;2023-05-10T05:18:21;11.15;;;7.20;;
80195;SDS011;69516;42.050;21.516;2023-05-10T05:20:47;11.20;;;6.63;;
80195;SDS011;69516;42.050;21.516;2023-05-10T05:23:13;10.85;;;7.13;;
80195;SDS011;69516;42.050;21.516;2023-05-10T05:25:39;11.63;;;7.38;;
80195;SDS011;69516;42.050;21.516;2023-05-10T05:28:06;10.23;;;6.28;;
80195;SDS011;69516;42.050;21.516;2023-05-10T05:30:32;10.15;;;7.03;;
80195;SDS011;69516;42.050;21.516;2023-05-10T05:32:59;11.40;;;6.28;;
80195;SDS011;69516;42.050;21.516;2023-05-10T05:35:25;10.73;;;7.03;;
80195;SDS011;69516;42.050;21.516;2023-05-10T05:37:51;9.10;;;6.10;;
80195;SDS011;69516;42.050;21.516;2023-05-10T05:40:17;9.73;;;6.10;;
80195;SDS011;69516;42.050;21.516;2023-05-10T05:42:45;11.32;;;6.80;;
80195;SDS011;69516;42.050;21.516;2023-05-10T05:45:11;10.80;;;6.05;;
80195;SDS011;69516;42.050;21.516;2023-05-10T05:47:38;8.90;;;6.00;;
80195;SDS011;69516;42.050;21.516;2023-05-10T05:50:05;10.25;;;6.55;;
80195;SDS011;69516;42.050;21.516;2023-05-10T05:52:31;9.57;;;6.10;;
80195;SDS011;69516;42.050;21.516;2023-05-10T05:54:57;9.23;;;5.55;;
80195;SDS011;69516;42.050;21.516;2023-05-10T05:57:24;9.90;;;6.22;;
80195;SDS011;69516;42.050;21.516;2023-05-10T05:59:51;7.22;;;4.57;;
80195;SDS011;69516;42.050;21.516;2023-05-10T06:02:17;7.72;;;5.00;;
80195;SDS011;69516;42.050;21.516;2023-05-10T06:04:43;11.55;;;6.70;;
80195;SDS011;69516;42.050;21.516;2023-05-10T06:07:11;11.70;;;7.85;;
80195;SDS011;69516;42.050;21.516;2023-05-10T06:09:37;10.35;;;6.07;;
80195;SDS011;69516;42.050;21.516;2023-05-10T06:12:03;8.80;;;6.25;;
80195;SDS011;69516;42.050;21.516;2023-05-10T06:14:30;8.77;;;5.97;;
80195;SDS011;69516;42.050;21.516;2023-05-10T06:16:56;10.05;;;6.18;;
80195;SDS011;69516;42.050;21.516;2023-05-10T06:19:24;9.15;;;6.30;;
80195;SDS011;69516;42.050;21.516;2023-05-10T06:21:51;8.95;;;5.68;;
80195;SDS011;69516;42.050;21.516;2023-05-10T06:24:17;8.18;;;5.68;;
80195;SDS011;69516;42.050;21.516;2023-05-10T06:26:44;9.15;;;6.00;;
80195;SDS011;69516;42.050;21.516;2023-05-10T06:29:10;5.90;;;3.80;;
80195;SDS011;69516;42.050;21.516;2023-05-10T06:31:36;6.35;;;3.35;;
80195;SDS011;69516;42.050;21.516;2023-05-10T06:34:02;5.95;;;3.30;;
80195;SDS011;69516;42.050;21.516;2023-05-10T06:36:28;5.72;;;3.15;;
80195;SDS011;69516;42.050;21.516;2023-05-10T06:38:54;7.38;;;3.75;;
80195;SDS011;69516;42.050;21.516;2023-05-10T06:41:21;6.10;;;3.58;;
80195;SDS011;69516;42.050;21.516;2023-05-10T06:43:47;6.60;;;3.42;;
80195;SDS011;69516;42.050;21.516;2023-05-10T06:46:13;6.85;;;3.35;;
80195;SDS011;69516;42.050;21.516;2023-05-10T06:48:39;6.55;;;3.33;;
80195;SDS011;69516;42.050;21.516;2023-05-10T06:51:06;6.47;;;3.13;;
80195;SDS011;69516;42.050;21.516;2023-05-10T06:53:32;5.15;;;3.03;;
80195;SDS011;69516;42.050;21.516;2023-05-10T06:55:58;5.68;;;3.22;;
80195;SDS011;69516;42.050;21.516;2023-05-10T06:58:24;7.53;;;3.10;;
80195;SDS011;69516;42.050;21.516;2023-05-10T07:00:50;6.40;;;3.30;;
80195;SDS011;69516;42.050;21.516;2023-05-10T07:03:17;5.40;;;3.17;;
80195;SDS011;69516;42.050;21.516;2023-05-10T07:05:43;6.90;;;3.50;;
80195;SDS011;69516;42.050;21.516;2023-05-10T07:08:09;5.95;;;3.35;;
80195;SDS011;69516;42.050;21.516;2023-05-10T07:10:36;6.68;;;3.42;;
80195;SDS011;69516;42.050;21.516;2023-05-10T07:13:02;5.88;;;3.53;;
80195;SDS011;69516;42.050;21.516;2023-05-10T07:15:32;6.28;;;3.33;;
80195;SDS011;69516;42.050;21.516;2023-05-10T07:17:58;5.93;;;3.15;;
80195;SDS011;69516;42.050;21.516;2023-05-10T07:20:25;7.13;;;3.20;;
80195;SDS011;69516;42.050;21.516;2023-05-10T07:22:51;6.97;;;3.92;;
80195;SDS011;69516;42.050;21.516;2023-05-10T07:25:19;6.25;;;3.83;;
80195;SDS011;69516;42.050;21.516;2023-05-10T07:27:54;7.68;;;4.40;;
80195;SDS011;69516;42.050;21.516;2023-05-10T07:30:20;9.93;;;5.93;;
80195;SDS011;69516;42.050;21.516;2023-05-10T07:32:46;10.65;;;6.28;;
80195;SDS011;69516;42.050;21.516;2023-05-10T07:35:12;9.25;;;5.30;;
80195;SDS011;69516;42.050;21.516;2023-05-10T07:37:39;8.77;;;5.55;;
80195;SDS011;69516;42.050;21.516;2023-05-10T07:40:05;7.63;;;4.65;;
80195;SDS011;69516;42.050;21.516;2023-05-10T07:42:31;7.53;;;4.28;;
80195;SDS011;69516;42.050;21.516;2023-05-10T07:44:57;7.47;;;4.80;;
80195;SDS011;69516;42.050;21.516;2023-05-10T07:47:24;7.25;;;4.78;;
80195;SDS011;69516;42.050;21.516;2023-05-10T07:49:51;7.78;;;4.38;;
80195;SDS011;69516;42.050;21.516;2023-05-10T07:52:17;9.13;;;5.18;;
80195;SDS011;69516;42.050;21.516;2023-05-10T07:54:43;8.63;;;5.05;;
80195;SDS011;69516;42.050;21.516;2023-05-10T07:57:10;7.72;;;4.85;;
80195;SDS011;69516;42.050;21.516;2023-05-10T07:59:36;6.82;;;4.20;;
80195;SDS011;69516;42.050;21.516;2023-05-10T08:02:02;6.82;;;4.35;;
80195;SDS011;69516;42.050;21.516;2023-05-10T08:04:28;7.55;;;4.60;;
80195;SDS011;69516;42.050;21.516;2023-05-10T08:06:55;7.13;;;4.40;;
80195;SDS011;69516;42.050;21.516;2023-05-10T08:09:21;9.18;;;4.40;;
80195;SDS011;69516;42.050;21.516;2023-05-10T08:11:49;7.57;;;4.32;;
80195;SDS011;69516;42.050;21.516;2023-05-10T08:14:16;6.60;;;4.32;;
80195;SDS011;69516;42.050;21.516;2023-05-10T08:16:42;6.60;;;4.05;;
80195;SDS011;69516;42.050;21.516;2023-05-10T08:19:08;6.97;;;4.20;;
80195;SDS011;69516;42.050;21.516;2023-05-10T08:21:34;7.32;;;4.65;;
80195;SDS011;69516;42.050;21.516;2023-05-10T08:24:01;8.57;;;5.47;;
80195;SDS011;69516;42.050;21.516;2023-05-10T08:26:27;7.82;;;4.93;;
80195;SDS011;69516;42.050;21.516;2023-05-10T08:28:54;8.85;;;5.53;;
80195;SDS011;69516;42.050;21.516;2023-05-10T08:31:20;7.10;;;4.88;;
80195;SDS011;69516;42.050;21.516;2023-05-10T08:33:46;9.25;;;5.40;;
80195;SDS011;69516;42.050;21.516;2023-05-10T08:36:12;10.13;;;5.13;;
80195;SDS011;69516;42.050;21.516;2023-05-10T08:38:44;7.38;;;4.70;;
80195;SDS011;69516;42.050;21.516;2023-05-10T08:41:10;7.97;;;4.93;;
80195;SDS011;69516;42.050;21.516;2023-05-10T08:43:37;6.65;;;4.30;;
80195;SDS011;69516;42.050;21.516;2023-05-10T08:46:03;6.65;;;4.18;;
80195;SDS011;69516;42.050;21.516;2023-05-10T08:48:31;7.10;;;4.50;;
80195;SDS011;69516;42.050;21.516;2023-05-10T08:50:59;8.75;;;4.10;;
80195;SDS011;69516;42.050;21.516;2023-05-10T08:53:27;6.55;;;4.32;;
80195;SDS011;69516;42.050;21.516;2023-05-10T08:55:54;8.05;;;4.43;;
80195;SDS011;69516;42.050;21.516;2023-05-10T08:58:21;7.60;;;3.65;;
80195;SDS011;69516;42.050;21.516;2023-05-10T09:00:48;7.03;;;4.10;;
80195;SDS011;69516;42.050;21.516;2023-05-10T09:03:15;7.00;;;4.13;;
80195;SDS011;69516;42.050;21.516;2023-05-10T09:05:42;8.30;;;4.72;;
80195;SDS011;69516;42.050;21.516;2023-05-10T09:08:09;6.88;;;3.47;;
80195;SDS011;69516;42.050;21.516;2023-05-10T09:10:38;7.97;;;4.43;;
80195;SDS011;69516;42.050;21.516;2023-05-10T09:13:06;6.80;;;4.38;;
80195;SDS011;69516;42.050;21.516;2023-05-10T09:15:33;9.80;;;4.35;;
80195;SDS011;69516;42.050;21.516;2023-05-10T09:17:59;6.35;;;3.60;;
80195;SDS011;69516;42.050;21.516;2023-05-10T09:20:27;7.18;;;4.07;;
80195;SDS011;69516;42.050;21.516;2023-05-10T09:22:53;6.40;;;3.70;;
80195;SDS011;69516;42.050;21.516;2023-05-10T09:25:20;6.78;;;3.67;;
80195;SDS011;69516;42.050;21.516;2023-05-10T09:27:47;7.03;;;3.90;;
80195;SDS011;69516;42.050;21.516;2023-05-10T09:30:17;8.25;;;3.97;;
80195;SDS011;69516;42.050;21.516;2023-05-10T09:32:49;5.88;;;3.63;;
80195;SDS011;69516;42.050;21.516;2023-05-10T09:35:16;5.70;;;3.22;;
80195;SDS011;69516;42.050;21.516;2023-05-10T09:37:43;5.13;;;3.25;;
80195;SDS011;69516;42.050;21.516;2023-05-10T09:40:12;8.85;;;4.00;;
80195;SDS011;69516;42.050;21.516;2023-05-10T09:42:38;11.57;;;7.00;;
80195;SDS011;69516;42.050;21.516;2023-05-10T09:45:04;9.32;;;5.03;;
80195;SDS011;69516;42.050;21.516;2023-05-10T09:47:31;7.05;;;4.63;;
80195;SDS011;69516;42.050;21.516;2023-05-10T09:49:59;8.60;;;4.00;;
80195;SDS011;69516;42.050;21.516;2023-05-10T09:52:51;8.45;;;4.35;;
80195;SDS011;69516;42.050;21.516;2023-05-10T09:55:20;6.45;;;4.20;;
80195;SDS011;69516;42.050;21.516;2023-05-10T09:57:47;6.55;;;4.10;;
80195;SDS011;69516;42.050;21.516;2023-05-10T10:00:18;6.70;;;4.50;;
80195;SDS011;69516;42.050;21.516;2023-05-10T10:02:48;11.50;;;7.00;;
80195;SDS011;69516;42.050;21.516;2023-05-10T10:05:14;7.13;;;4.32;;
80195;SDS011;69516;42.050;21.516;2023-05-10T10:07:41;7.03;;;4.20;;
80195;SDS011;69516;42.050;21.516;2023-05-10T10:10:07;7.47;;;4.15;;
80195;SDS011;69516;42.050;21.516;2023-05-10T10:12:37;5.25;;;3.63;;
80195;SDS011;69516;42.050;21.516;2023-05-10T10:15:04;7.35;;;3.67;;
80195;SDS011;69516;42.050;21.516;2023-05-10T10:17:31;5.40;;;3.13;;
80195;SDS011;69516;42.050;21.516;2023-05-10T10:19:58;5.50;;;3.30;;
80195;SDS011;69516;42.050;21.516;2023-05-10T10:22:25;6.05;;;3.63;;
80195;SDS011;69516;42.050;21.516;2023-05-10T10:24:51;10.88;;;3.08;;
80195;SDS011;69516;42.050;21.516;2023-05-10T10:35:35;4.50;;;2.30;;
80195;SDS011;69516;42.050;21.516;2023-05-10T10:38:02;5.70;;;2.85;;
80195;SDS011;69516;42.050;21.516;2023-05-10T10:42:55;5.63;;;2.30;;
80195;SDS011;69516;42.050;21.516;2023-05-10T10:45:22;4.50;;;2.30;;
80195;SDS011;69516;42.050;21.516;2023-05-10T10:47:48;6.32;;;2.90;;
80195;SDS011;69516;42.050;21.516;2023-05-10T10:50:16;5.78;;;2.90;;
80195;SDS011;69516;42.050;21.516;2023-05-10T10:52:43;5.53;;;3.20;;
80195;SDS011;69516;42.050;21.516;2023-05-10T10:55:19;7.57;;;4.20;;
80195;SDS011;69516;42.050;21.516;2023-05-10T10:57:54;4.80;;;2.30;;
80195;SDS011;69516;42.050;21.516;2023-05-10T11:03:11;4.10;;;2.05;;
80195;SDS011;69516;42.050;21.516;2023-05-10T11:08:12;6.57;;;2.22;;
80195;SDS011;69516;42.050;21.516;2023-05-10T11:10:39;5.72;;;2.00;;
80195;SDS011;69516;42.050;21.516;2023-05-10T11:13:07;3.72;;;1.60;;
80195;SDS011;69516;42.050;21.516;2023-05-10T11:18:00;4.20;;;2.40;;
80195;SDS011;69516;42.050;21.516;2023-05-10T11:20:32;5.97;;;3.38;;
80195;SDS011;69516;42.050;21.516;2023-05-10T11:23:14;5.65;;;2.10;;
80195;SDS011;69516;42.050;21.516;2023-05-10T11:25:41;4.40;;;2.00;;
80195;SDS011;69516;42.050;21.516;2023-05-10T11:28:09;6.90;;;2.30;;
80195;SDS011;69516;42.050;21.516;2023-05-10T11:30:36;6.05;;;1.92;;
80195;SDS011;69516;42.050;21.516;2023-05-10T11:33:02;4.70;;;1.90;;
80195;SDS011;69516;42.050;21.516;2023-05-10T11:35:28;4.18;;;2.13;;
80195;SDS011;69516;42.050;21.516;2023-05-10T11:37:54;6.38;;;2.25;;
80195;SDS011;69516;42.050;21.516;2023-05-10T11:40:21;3.78;;;1.90;;
80195;SDS011;69516;42.050;21.516;2023-05-10T11:42:52;3.53;;;1.70;;
80195;SDS011;69516;42.050;21.516;2023-05-10T11:45:24;4.68;;;2.33;;
80195;SDS011;69516;42.050;21.516;2023-05-10T11:47:51;6.15;;;3.05;;
80195;SDS011;69516;42.050;21.516;2023-05-10T11:50:17;8.23;;;2.88;;
80195;SDS011;69516;42.050;21.516;2023-05-10T11:52:43;4.63;;;2.17;;
80195;SDS011;69516;42.050;21.516;2023-05-10T11:55:10;4.35;;;2.22;;
80195;SDS011;69516;42.050;21.516;2023-05-10T11:57:36;8.65;;;3.08;;
80195;SDS011;69516;42.050;21.516;2023-05-10T12:00:04;5.38;;;2.70;;
80195;SDS011;69516;42.050;21.516;2023-05-10T12:02:31;7.38;;;3.90;;
80195;SDS011;69516;42.050;21.516;2023-05-10T12:04:57;9.05;;;3.83;;
80195;SDS011;69516;42.050;21.516;2023-05-10T12:07:23;6.72;;;2.95;;
80195;SDS011;69516;42.050;21.516;2023-05-10T12:10:08;6.20;;;3.42;;
80195;SDS011;69516;42.050;21.516;2023-05-10T12:12:38;6.25;;;2.90;;
80195;SDS011;69516;42.050;21.516;2023-05-10T12:15:09;6.63;;;3.20;;
80195;SDS011;69516;42.050;21.516;2023-05-10T12:17:37;5.97;;;2.33;;
80195;SDS011;69516;42.050;21.516;2023-05-10T12:20:20;4.50;;;2.22;;
80195;SDS011;69516;42.050;21.516;2023-05-10T12:22:50;4.63;;;1.77;;
80195;SDS011;69516;42.050;21.516;2023-05-10T12:25:17;6.07;;;2.53;;
80195;SDS011;69516;42.050;21.516;2023-05-10T12:27:57;5.30;;;2.40;;
80195;SDS011;69516;42.050;21.516;2023-05-10T12:30:26;4.85;;;2.50;;
80195;SDS011;69516;42.050;21.516;2023-05-10T12:32:53;4.57;;;2.28;;
80195;SDS011;69516;42.050;21.516;2023-05-10T12:35:25;4.43;;;2.28;;
80195;SDS011;69516;42.050;21.516;2023-05-10T12:37:51;8.02;;;3.20;;
80195;SDS011;69516;42.050;21.516;2023-05-10T12:40:18;5.88;;;2.78;;
80195;SDS011;69516;42.050;21.516;2023-05-10T12:42:44;6.25;;;2.58;;
80195;SDS011;69516;42.050;21.516;2023-05-10T12:45:10;5.95;;;2.40;;
80195;SDS011;69516;42.050;21.516;2023-05-10T12:47:37;5.20;;;2.22;;
80195;SDS011;69516;42.050;21.516;2023-05-10T12:50:03;5.05;;;2.30;;
80195;SDS011;69516;42.050;21.516;2023-05-10T12:52:30;4.35;;;1.60;;
80195;SDS011;69516;42.050;21.516;2023-05-10T12:55:00;4.47;;;2.03;;
80195;SDS011;69516;42.050;21.516;2023-05-10T12:57:26;5.53;;;2.00;;
80195;SDS011;69516;42.050;21.516;2023-05-10T12:59:53;5.53;;;2.15;;
80195;SDS011;69516;42.050;21.516;2023-05-10T13:02:19;4.75;;;2.00;;
80195;SDS011;69516;42.050;21.516;2023-05-10T13:04:48;4.30;;;2.25;;
80195;SDS011;69516;42.050;21.516;2023-05-10T13:07:15;5.28;;;2.25;;
80195;SDS011;69516;42.050;21.516;2023-05-10T13:09:41;4.78;;;1.85;;
80195;SDS011;69516;42.050;21.516;2023-05-10T13:12:08;6.53;;;1.90;;
80195;SDS011;69516;42.050;21.516;2023-05-10T13:14:35;5.68;;;2.00;;
80195;SDS011;69516;42.050;21.516;2023-05-10T13:17:01;5.75;;;2.20;;
80195;SDS011;69516;42.050;21.516;2023-05-10T13:19:27;4.50;;;2.08;;
80195;SDS011;69516;42.050;21.516;2023-05-10T13:21:54;6.53;;;2.10;;
80195;SDS011;69516;42.050;21.516;2023-05-10T13:24:20;5.30;;;2.60;;
80195;SDS011;69516;42.050;21.516;2023-05-10T13:26:47;4.43;;;2.08;;
80195;SDS011;69516;42.050;21.516;2023-05-10T13:29:13;4.60;;;1.73;;
80195;SDS011;69516;42.050;21.516;2023-05-10T13:31:42;3.95;;;1.75;;
80195;SDS011;69516;42.050;21.516;2023-05-10T13:34:08;5.35;;;1.40;;
80195;SDS011;69516;42.050;21.516;2023-05-10T13:36:34;5.13;;;1.55;;
80195;SDS011;69516;42.050;21.516;2023-05-10T13:39:00;4.68;;;1.67;;
80195;SDS011;69516;42.050;21.516;2023-05-10T13:41:28;9.05;;;3.90;;
80195;SDS011;69516;42.050;21.516;2023-05-10T13:43:54;9.82;;;4.07;;
80195;SDS011;69516;42.050;21.516;2023-05-10T13:46:20;5.82;;;2.67;;
80195;SDS011;69516;42.050;21.516;2023-05-10T13:48:46;6.60;;;2.85;;
80195;SDS011;69516;42.050;21.516;2023-05-10T13:51:13;5.10;;;2.20;;
80195;SDS011;69516;42.050;21.516;2023-05-10T13:53:39;4.68;;;2.03;;
80195;SDS011;69516;42.050;21.516;2023-05-10T13:56:05;3.85;;;1.90;;
80195;SDS011;69516;42.050;21.516;2023-05-10T13:58:32;5.88;;;2.55;;
80195;SDS011;69516;42.050;21.516;2023-05-10T14:00:58;5.88;;;3.05;;
80195;SDS011;69516;42.050;21.516;2023-05-10T14:03:24;5.43;;;2.05;;
80195;SDS011;69516;42.050;21.516;2023-05-10T14:05:50;6.47;;;2.30;;
80195;SDS011;69516;42.050;21.516;2023-05-10T14:08:17;6.00;;;2.40;;
80195;SDS011;69516;42.050;21.516;2023-05-10T14:10:43;6.80;;;2.00;;
80195;SDS011;69516;42.050;21.516;2023-05-10T14:13:09;5.32;;;2.10;;
80195;SDS011;69516;42.050;21.516;2023-05-10T14:15:36;5.13;;;2.08;;
80195;SDS011;69516;42.050;21.516;2023-05-10T14:18:02;4.22;;;2.10;;
80195;SDS011;69516;42.050;21.516;2023-05-10T14:20:29;3.75;;;1.70;;
80195;SDS011;69516;42.050;21.516;2023-05-10T14:25:23;4.90;;;1.90;;
80195;SDS011;69516;42.050;21.516;2023-05-10T14:27:49;4.80;;;2.10;;
80195;SDS011;69516;42.050;21.516;2023-05-10T14:30:15;4.65;;;2.00;;
80195;SDS011;69516;42.050;21.516;2023-05-10T14:32:42;5.50;;;2.20;;
80195;SDS011;69516;42.050;21.516;2023-05-10T14:35:09;5.10;;;1.95;;
80195;SDS011;69516;42.050;21.516;2023-05-10T14:37:35;4.80;;;1.90;;
80195;SDS011;69516;42.050;21.516;2023-05-10T14:40:02;6.50;;;2.75;;
80195;SDS011;69516;42.050;21.516;2023-05-10T14:42:29;7.45;;;2.30;;
80195;SDS011;69516;42.050;21.516;2023-05-10T14:44:56;5.43;;;2.40;;
80195;SDS011;69516;42.050;21.516;2023-05-10T14:47:22;5.15;;;2.35;;
80195;SDS011;69516;42.050;21.516;2023-05-10T14:49:48;6.40;;;2.65;;
80195;SDS011;69516;42.050;21.516;2023-05-10T14:52:15;7.47;;;2.80;;
80195;SDS011;69516;42.050;21.516;2023-05-10T14:54:42;6.85;;;2.97;;
80195;SDS011;69516;42.050;21.516;2023-05-10T14:57:08;7.32;;;3.45;;
80195;SDS011;69516;42.050;21.516;2023-05-10T14:59:34;6.97;;;3.40;;
80195;SDS011;69516;42.050;21.516;2023-05-10T15:02:00;5.05;;;2.90;;
80195;SDS011;69516;42.050;21.516;2023-05-10T15:04:28;5.90;;;3.03;;
80195;SDS011;69516;42.050;21.516;2023-05-10T15:06:54;5.38;;;2.90;;
80195;SDS011;69516;42.050;21.516;2023-05-10T15:09:24;6.40;;;3.20;;